createdAt,value
2019-01-04T00:00:29.817Z,0.92
2019-01-04T00:01:29.809Z,0.87
2019-01-04T00:02:29.793Z,0.96
2019-01-04T00:03:29.791Z,0.96
2019-01-04T00:04:29.783Z,0.98
2019-01-04T00:05:29.768Z,0.96
2019-01-04T00:06:29.756Z,0.92
2019-01-04T00:07:29.749Z,0.95
2019-01-04T00:08:29.741Z,0.96
2019-01-04T00:09:29.732Z,0.87
2019-01-04T00:10:29.716Z,0.81
2019-01-04T00:11:29.712Z,0.81
2019-01-04T00:12:29.702Z,0.81
2019-01-04T00:13:29.691Z,0.74
2019-01-04T00:14:29.684Z,0.69
2019-01-04T00:15:29.670Z,0.86
2019-01-04T00:16:29.662Z,0.76
2019-01-04T00:17:29.653Z,0.70
2019-01-04T00:18:29.646Z,0.77
2019-01-04T00:19:29.628Z,0.77
2019-01-04T00:20:29.623Z,0.78
2019-01-04T00:21:29.617Z,0.68
2019-01-04T00:22:29.600Z,0.62
2019-01-04T00:23:29.596Z,0.74
2019-01-04T00:24:29.948Z,0.80
2019-01-04T00:25:29.576Z,0.70
2019-01-04T00:26:29.565Z,0.73
2019-01-04T00:27:29.553Z,0.70
2019-01-04T00:28:29.547Z,0.66
2019-01-04T00:29:29.539Z,0.68
2019-01-04T00:30:29.527Z,0.74
2019-01-04T00:31:29.518Z,0.70
2019-01-04T00:32:29.511Z,0.80
2019-01-04T00:33:29.501Z,0.74
2019-01-04T00:34:29.491Z,0.73
2019-01-04T00:35:29.479Z,0.70
2019-01-04T00:36:29.465Z,0.65
2019-01-04T00:37:29.455Z,0.62
2019-01-04T00:38:29.452Z,0.60
2019-01-04T00:39:29.440Z,0.60
2019-01-04T00:40:29.435Z,0.69
2019-01-04T00:41:29.424Z,0.63
2019-01-04T00:42:29.411Z,0.62
2019-01-04T00:43:29.398Z,0.52
2019-01-04T00:44:29.388Z,0.50
2019-01-04T00:45:29.383Z,0.58
2019-01-04T00:46:29.375Z,0.47
2019-01-04T00:47:29.360Z,0.59
2019-01-04T00:48:29.357Z,0.56
2019-01-04T00:49:29.338Z,0.52
2019-01-04T00:50:29.331Z,0.55
2019-01-04T00:51:29.347Z,0.52
2019-01-04T00:52:29.316Z,0.46
2019-01-04T00:53:29.302Z,0.52
2019-01-04T00:54:29.294Z,0.47
2019-01-04T00:55:29.280Z,0.50
2019-01-04T00:56:29.276Z,0.55
2019-01-04T00:57:29.261Z,0.55
2019-01-04T00:58:29.253Z,0.52
2019-01-04T00:59:29.245Z,0.55
2019-01-04T01:00:29.235Z,0.55
2019-01-04T01:01:29.223Z,0.58
2019-01-04T01:02:29.216Z,0.47
2019-01-04T01:03:29.206Z,0.49
2019-01-04T01:04:29.193Z,0.44
2019-01-04T01:05:29.184Z,0.46
2019-01-04T01:06:29.172Z,0.41
2019-01-04T01:07:29.167Z,0.39
2019-01-04T01:08:29.153Z,0.49
2019-01-04T01:09:29.143Z,0.47
2019-01-04T01:10:29.136Z,0.50
2019-01-04T01:11:29.125Z,0.49
2019-01-04T01:12:29.117Z,0.41
2019-01-04T01:13:29.110Z,0.40
2019-01-04T01:14:29.102Z,0.39
2019-01-04T01:15:29.084Z,0.34
2019-01-04T01:16:29.128Z,0.31
2019-01-04T01:17:29.065Z,0.31
2019-01-04T01:18:29.060Z,0.29
2019-01-04T01:19:29.051Z,0.25
2019-01-04T01:20:29.035Z,0.37
2019-01-04T01:21:29.028Z,0.40
2019-01-04T01:22:29.017Z,0.37
2019-01-04T01:23:29.013Z,0.37
2019-01-04T01:24:28.996Z,0.43
2019-01-04T01:25:28.988Z,0.46
2019-01-04T01:26:28.975Z,0.49
2019-01-04T01:27:28.970Z,0.56
2019-01-04T01:28:28.959Z,0.73
2019-01-04T01:29:28.948Z,0.94
2019-01-04T01:30:28.944Z,0.69
2019-01-04T01:31:28.929Z,0.81
2019-01-04T01:32:28.921Z,0.76
2019-01-04T01:33:28.908Z,0.80
2019-01-04T01:34:28.897Z,0.80
2019-01-04T01:35:28.893Z,0.80
2019-01-04T01:36:28.880Z,0.84
2019-01-04T01:37:28.872Z,0.87
2019-01-04T01:38:28.862Z,0.91
2019-01-04T01:39:28.856Z,0.86
2019-01-04T01:40:28.849Z,0.86
2019-01-04T01:41:28.831Z,0.87
2019-01-04T01:42:28.826Z,0.86
2019-01-04T01:43:28.820Z,0.78
2019-01-04T01:44:28.799Z,0.81
2019-01-04T01:45:28.789Z,0.86
2019-01-04T01:46:28.784Z,0.84
2019-01-04T01:47:28.776Z,0.87
2019-01-04T01:48:28.768Z,0.86
2019-01-04T01:49:28.759Z,0.84
2019-01-04T01:50:28.743Z,0.86
2019-01-04T01:51:28.742Z,0.81
2019-01-04T01:52:28.726Z,0.76
2019-01-04T01:53:28.714Z,0.77
2019-01-04T01:54:28.704Z,0.68
2019-01-04T01:55:28.694Z,0.69
2019-01-04T01:56:28.685Z,0.76
2019-01-04T01:57:28.672Z,0.77
2019-01-04T01:58:28.668Z,0.87
2019-01-04T01:59:28.659Z,0.80
2019-01-04T02:00:28.651Z,0.87
2019-01-04T02:01:28.640Z,0.81
2019-01-04T02:02:28.625Z,0.76
2019-01-04T02:03:28.620Z,0.77
2019-01-04T02:04:28.610Z,0.78
2019-01-04T02:05:28.598Z,0.73
2019-01-04T02:06:28.588Z,0.65
2019-01-04T02:07:28.580Z,0.63
2019-01-04T02:08:28.569Z,0.62
2019-01-04T02:09:28.560Z,0.65
2019-01-04T02:10:28.545Z,0.65
2019-01-04T02:11:28.535Z,0.62
2019-01-04T02:12:28.534Z,0.63
2019-01-04T02:13:28.524Z,0.63
2019-01-04T02:14:28.509Z,0.49
2019-01-04T02:15:28.501Z,0.52
2019-01-04T02:16:28.491Z,0.49
2019-01-04T02:17:28.485Z,0.47
2019-01-04T02:18:28.471Z,0.49
2019-01-04T02:19:28.457Z,0.46
2019-01-04T02:20:28.454Z,0.46
2019-01-04T02:21:28.437Z,0.56
2019-01-04T02:22:28.432Z,0.49
2019-01-04T02:23:28.426Z,0.70
2019-01-04T02:24:28.410Z,0.63
2019-01-04T02:25:28.398Z,0.77
2019-01-04T02:26:28.396Z,0.80
2019-01-04T02:27:28.435Z,0.81
2019-01-04T02:28:28.375Z,0.84
2019-01-04T02:29:28.364Z,0.73
2019-01-04T02:30:28.356Z,0.74
2019-01-04T02:31:28.344Z,0.76
2019-01-04T02:32:28.332Z,0.70
2019-01-04T02:33:28.324Z,0.74
2019-01-04T02:34:28.311Z,0.74
2019-01-04T02:35:28.307Z,0.76
2019-01-04T02:36:28.296Z,0.83
2019-01-04T02:37:28.286Z,0.83
2019-01-04T02:38:28.276Z,0.83
2019-01-04T02:39:28.259Z,0.88
2019-01-04T02:40:28.249Z,0.86
2019-01-04T02:41:28.247Z,0.86
2019-01-04T02:42:28.230Z,0.81
2019-01-04T02:43:28.226Z,0.86
2019-01-04T02:44:28.214Z,0.88
2019-01-04T02:45:28.199Z,0.84
2019-01-04T02:46:28.197Z,0.81
2019-01-04T02:47:28.183Z,0.80
2019-01-04T02:48:28.174Z,0.84
2019-01-04T02:49:28.168Z,0.88
2019-01-04T02:50:28.157Z,0.86
2019-01-04T02:51:28.155Z,0.86
2019-01-04T02:52:28.134Z,0.81
2019-01-04T02:53:28.119Z,0.87
2019-01-04T02:54:28.114Z,0.88
2019-01-04T02:55:28.100Z,0.81
2019-01-04T02:56:28.096Z,0.84
2019-01-04T02:57:28.086Z,0.84
2019-01-04T02:58:28.078Z,0.83
2019-01-04T02:59:28.064Z,0.84
2019-01-04T03:00:28.053Z,0.83
2019-01-04T03:01:28.043Z,0.80
2019-01-04T03:02:28.032Z,0.91
2019-01-04T03:03:28.024Z,0.80
2019-01-04T03:04:28.013Z,0.91
2019-01-04T03:05:28.004Z,0.84
2019-01-04T03:06:27.995Z,0.87
2019-01-04T03:07:27.987Z,0.83
2019-01-04T03:08:27.975Z,0.87
2019-01-04T03:09:27.965Z,0.87
2019-01-04T03:10:27.953Z,0.87
2019-01-04T03:11:27.953Z,0.87
2019-01-04T03:12:27.937Z,0.88
2019-01-04T03:13:27.927Z,0.88
2019-01-04T03:14:27.915Z,0.92
2019-01-04T03:15:27.909Z,0.91
2019-01-04T03:16:27.895Z,0.96
2019-01-04T03:17:27.884Z,0.95
2019-01-04T03:18:27.883Z,0.96
2019-01-04T03:19:27.869Z,0.98
2019-01-04T03:20:27.868Z,1.01
2019-01-04T03:21:27.851Z,0.99
2019-01-04T03:22:27.839Z,0.98
2019-01-04T03:23:27.829Z,0.99
2019-01-04T03:24:27.822Z,0.99
2019-01-04T03:25:27.806Z,1.05
2019-01-04T03:26:27.801Z,0.98
2019-01-04T03:27:27.792Z,1.01
2019-01-04T03:28:27.787Z,0.98
2019-01-04T03:29:27.767Z,1.05
2019-01-04T03:30:27.772Z,1.02
2019-01-04T03:31:27.751Z,1.06
2019-01-04T03:32:27.753Z,1.13
2019-01-04T03:33:27.735Z,1.08
2019-01-04T03:34:27.722Z,1.12
2019-01-04T03:35:27.717Z,1.12
2019-01-04T03:36:27.701Z,1.19
2019-01-04T03:37:27.694Z,1.19
2019-01-04T03:38:27.685Z,1.14
2019-01-04T03:39:27.671Z,1.19
2019-01-04T03:40:27.669Z,1.22
2019-01-04T03:41:27.654Z,1.20
2019-01-04T03:42:27.644Z,1.19
2019-01-04T03:43:27.638Z,1.16
2019-01-04T03:44:27.627Z,1.22
2019-01-04T03:45:27.613Z,1.26
2019-01-04T03:46:27.606Z,1.23
2019-01-04T03:47:27.601Z,1.34
2019-01-04T03:48:27.583Z,1.28
2019-01-04T03:49:27.578Z,1.30
2019-01-04T03:50:27.572Z,1.31
2019-01-04T03:51:27.560Z,1.28
2019-01-04T03:52:27.555Z,1.26
2019-01-04T03:53:27.534Z,1.35
2019-01-04T03:54:27.540Z,1.31
2019-01-04T03:55:27.523Z,1.30
2019-01-04T03:56:27.510Z,1.35
2019-01-04T03:57:27.504Z,1.28
2019-01-04T03:58:27.494Z,1.32
2019-01-04T03:59:27.476Z,1.38
2019-01-04T04:00:27.474Z,1.45
2019-01-04T04:01:27.459Z,1.41
2019-01-04T04:02:27.450Z,1.45
2019-01-04T04:03:27.438Z,1.40
2019-01-04T04:04:27.430Z,1.37
2019-01-04T04:05:27.423Z,1.40
2019-01-04T04:06:27.415Z,1.42
2019-01-04T04:07:27.405Z,1.48
2019-01-04T04:08:27.398Z,1.49
2019-01-04T04:09:27.380Z,1.44
2019-01-04T04:10:27.370Z,1.45
2019-01-04T04:11:27.365Z,1.44
2019-01-04T04:12:27.359Z,1.42
2019-01-04T04:13:27.366Z,1.48
2019-01-04T04:14:27.334Z,1.50
2019-01-04T04:15:27.327Z,1.48
2019-01-04T04:16:27.317Z,1.55
2019-01-04T04:17:27.310Z,1.49
2019-01-04T04:18:27.295Z,1.53
2019-01-04T04:19:27.285Z,1.53
2019-01-04T04:20:27.278Z,1.55
2019-01-04T04:21:27.270Z,1.56
2019-01-04T04:22:27.259Z,1.53
2019-01-04T04:23:27.260Z,1.53
2019-01-04T04:24:27.244Z,1.56
2019-01-04T04:25:27.224Z,1.56
2019-01-04T04:26:27.221Z,1.53
2019-01-04T04:27:27.213Z,1.49
2019-01-04T04:28:27.202Z,1.59
2019-01-04T04:29:27.189Z,1.52
2019-01-04T04:30:27.180Z,1.45
2019-01-04T04:31:27.167Z,1.62
2019-01-04T04:32:27.167Z,1.66
2019-01-04T04:33:27.151Z,1.62
2019-01-04T04:34:27.141Z,1.59
2019-01-04T04:35:27.130Z,1.60
2019-01-04T04:36:27.123Z,1.59
2019-01-04T04:37:27.110Z,1.63
2019-01-04T04:38:27.114Z,1.56
2019-01-04T04:39:27.101Z,1.60
2019-01-04T04:40:27.087Z,1.56
2019-01-04T04:41:27.075Z,1.56
2019-01-04T04:42:27.064Z,1.59
2019-01-04T04:43:27.052Z,1.67
2019-01-04T04:44:27.051Z,1.67
2019-01-04T04:45:27.038Z,1.58
2019-01-04T04:46:27.024Z,1.68
2019-01-04T04:47:27.022Z,1.63
2019-01-04T04:48:27.006Z,1.52
2019-01-04T04:49:26.995Z,1.66
2019-01-04T04:50:26.992Z,1.63
2019-01-04T04:51:26.979Z,1.68
2019-01-04T04:52:26.974Z,1.67
2019-01-04T04:53:26.964Z,1.68
2019-01-04T04:54:26.955Z,1.70
2019-01-04T04:55:26.940Z,1.71
2019-01-04T04:56:26.933Z,1.73
2019-01-04T04:57:26.921Z,1.59
2019-01-04T04:58:26.914Z,1.70
2019-01-04T04:59:26.903Z,1.63
2019-01-04T05:00:26.899Z,1.74
2019-01-04T05:01:26.881Z,1.73
2019-01-04T05:02:26.871Z,1.73
2019-01-04T05:03:26.863Z,1.71
2019-01-04T05:04:26.862Z,1.67
2019-01-04T05:05:26.850Z,1.73
2019-01-04T05:06:26.843Z,1.74
2019-01-04T05:07:26.825Z,1.67
2019-01-04T05:08:26.824Z,1.74
2019-01-04T05:09:26.810Z,1.68
2019-01-04T05:10:26.800Z,1.70
2019-01-04T05:11:26.790Z,1.68
2019-01-04T05:12:26.778Z,1.71
2019-01-04T05:13:26.768Z,1.73
2019-01-04T05:14:26.765Z,1.70
2019-01-04T05:15:26.749Z,1.74
2019-01-04T05:16:26.747Z,1.74
2019-01-04T05:17:26.729Z,1.76
2019-01-04T05:18:26.737Z,1.76
2019-01-04T05:19:26.721Z,1.78
2019-01-04T05:20:26.707Z,1.73
2019-01-04T05:21:26.698Z,1.76
2019-01-04T05:22:26.689Z,1.74
2019-01-04T05:23:26.678Z,1.81
2019-01-04T05:24:26.669Z,1.76
2019-01-04T05:25:26.659Z,1.76
2019-01-04T05:26:26.651Z,1.74
2019-01-04T05:27:26.643Z,1.71
2019-01-04T05:28:26.634Z,1.76
2019-01-04T05:29:26.624Z,1.67
2019-01-04T05:30:26.609Z,1.70
2019-01-04T05:31:26.607Z,1.62
2019-01-04T05:32:26.600Z,1.68
2019-01-04T05:33:26.581Z,1.56
2019-01-04T05:34:26.577Z,1.52
2019-01-04T05:35:26.560Z,1.67
2019-01-04T05:36:26.557Z,1.50
2019-01-04T05:37:26.544Z,1.52
2019-01-04T05:38:26.537Z,1.49
2019-01-04T05:39:26.520Z,1.62
2019-01-04T05:40:26.519Z,1.53
2019-01-04T05:41:26.506Z,1.50
2019-01-04T05:42:26.496Z,1.52
2019-01-04T05:43:26.490Z,1.53
2019-01-04T05:44:26.475Z,1.52
2019-01-04T05:45:26.464Z,1.63
2019-01-04T05:46:26.461Z,1.58
2019-01-04T05:47:26.443Z,1.55
2019-01-04T05:48:26.450Z,1.56
2019-01-04T05:49:26.431Z,1.63
2019-01-04T05:50:26.419Z,1.55
2019-01-04T05:51:26.416Z,1.63
2019-01-04T05:52:26.405Z,1.67
2019-01-04T05:53:26.390Z,1.63
2019-01-04T05:54:26.385Z,1.68
2019-01-04T05:55:26.376Z,1.73
2019-01-04T05:56:26.367Z,1.66
2019-01-04T05:57:26.354Z,1.66
2019-01-04T05:58:26.347Z,1.67
2019-01-04T05:59:26.328Z,1.73
2019-01-04T06:00:26.328Z,1.73
2019-01-04T06:01:26.310Z,1.81
2019-01-04T06:02:26.307Z,1.85
2019-01-04T06:03:26.301Z,1.85
2019-01-04T06:04:26.285Z,1.91
2019-01-04T06:05:26.274Z,1.84
2019-01-04T06:06:26.271Z,1.94
2019-01-04T06:07:26.252Z,1.91
2019-01-04T06:08:26.249Z,1.95
2019-01-04T06:09:26.240Z,1.81
2019-01-04T06:10:26.226Z,1.95
2019-01-04T06:11:26.212Z,1.85
2019-01-04T06:12:26.264Z,1.94
2019-01-04T06:13:26.199Z,1.95
2019-01-04T06:14:26.184Z,2.06
2019-01-04T06:15:26.178Z,1.95
2019-01-04T06:16:26.169Z,2.04
2019-01-04T06:17:26.160Z,2.02
2019-01-04T06:18:26.156Z,2.07
2019-01-04T06:19:26.140Z,2.02
2019-01-04T06:20:26.133Z,2.02
2019-01-04T06:21:26.123Z,2.11
2019-01-04T06:22:26.110Z,2.14
2019-01-04T06:23:26.099Z,2.13
2019-01-04T06:24:26.089Z,2.18
2019-01-04T06:25:26.078Z,2.26
2019-01-04T06:26:26.076Z,2.22
2019-01-04T06:27:26.061Z,2.17
2019-01-04T06:28:26.081Z,2.31
2019-01-04T06:29:26.044Z,2.25
2019-01-04T06:30:26.040Z,2.33
2019-01-04T06:31:26.024Z,2.28
2019-01-04T06:32:26.013Z,2.38
2019-01-04T06:33:26.007Z,2.32
2019-01-04T06:34:25.998Z,2.44
2019-01-04T06:35:25.983Z,2.50
2019-01-04T06:36:25.974Z,2.43
2019-01-04T06:37:25.960Z,2.51
2019-01-04T06:38:25.956Z,2.57
2019-01-04T06:39:25.941Z,2.49
2019-01-04T06:40:25.940Z,2.47
2019-01-04T06:41:25.926Z,2.47
2019-01-04T06:42:25.917Z,2.50
2019-01-04T06:43:25.908Z,2.60
2019-01-04T06:44:25.895Z,2.57
2019-01-04T06:45:25.885Z,2.51
2019-01-04T06:46:25.880Z,2.56
2019-01-04T06:47:25.868Z,2.53
2019-01-04T06:48:25.861Z,2.54
2019-01-04T06:49:25.849Z,2.62
2019-01-04T06:50:25.835Z,2.65
2019-01-04T06:51:27.883Z,2.62
2019-01-04T06:52:25.818Z,2.64
2019-01-04T06:53:25.812Z,2.68
2019-01-04T06:54:25.804Z,2.69
2019-01-04T06:55:25.789Z,2.62
2019-01-04T06:56:25.777Z,2.72
2019-01-04T06:57:25.774Z,2.77
2019-01-04T06:58:25.793Z,2.71
2019-01-04T06:59:25.756Z,2.65
2019-01-04T07:00:25.737Z,2.80
2019-01-04T07:01:25.734Z,2.77
2019-01-04T07:02:25.719Z,2.77
2019-01-04T07:03:25.714Z,2.71
2019-01-04T07:04:25.706Z,2.77
2019-01-04T07:05:25.691Z,2.77
2019-01-04T07:06:25.685Z,2.75
2019-01-04T07:07:25.673Z,2.75
2019-01-04T07:08:25.666Z,2.83
2019-01-04T07:09:25.656Z,2.85
2019-01-04T07:10:25.649Z,2.80
2019-01-04T07:11:25.632Z,2.86
2019-01-04T07:12:25.630Z,2.90
2019-01-04T07:13:25.613Z,2.90
2019-01-04T07:14:25.603Z,2.87
2019-01-04T07:15:25.600Z,2.83
2019-01-04T07:16:25.593Z,2.86
2019-01-04T07:17:25.581Z,2.89
2019-01-04T07:18:25.567Z,2.83
2019-01-04T07:19:25.573Z,2.87
2019-01-04T07:20:25.550Z,2.98
2019-01-04T07:21:25.534Z,2.89
2019-01-04T07:22:25.528Z,2.90
2019-01-04T07:23:25.534Z,2.85
2019-01-04T07:24:25.515Z,2.93
2019-01-04T07:25:25.498Z,2.87
2019-01-04T07:26:25.489Z,2.89
2019-01-04T07:27:25.486Z,2.95
2019-01-04T07:28:25.468Z,2.92
2019-01-04T07:29:25.465Z,2.90
2019-01-04T07:30:25.453Z,2.95
2019-01-04T07:31:25.444Z,2.97
2019-01-04T07:32:25.435Z,2.98
2019-01-04T07:33:25.422Z,3.04
2019-01-04T07:34:25.415Z,3.01
2019-01-04T07:35:25.401Z,3.10
2019-01-04T07:36:25.398Z,3.05
2019-01-04T07:37:25.382Z,3.08
2019-01-04T07:38:25.371Z,3.10
2019-01-04T07:39:25.362Z,3.22
2019-01-04T07:40:25.361Z,3.18
2019-01-04T07:41:25.348Z,3.18
2019-01-04T07:42:25.336Z,3.16
2019-01-04T07:43:25.333Z,3.11
2019-01-04T07:44:25.319Z,3.16
2019-01-04T07:45:25.306Z,3.14
2019-01-04T07:46:25.304Z,3.19
2019-01-04T07:47:25.295Z,3.16
2019-01-04T07:48:25.282Z,3.19
2019-01-04T07:49:25.279Z,3.19
2019-01-04T07:50:25.259Z,3.16
2019-01-04T07:51:25.254Z,3.36
2019-01-04T07:52:25.241Z,3.11
2019-01-04T07:53:25.230Z,3.26
2019-01-04T07:54:25.223Z,3.32
2019-01-04T07:55:25.220Z,3.31
2019-01-04T07:56:25.212Z,3.42
2019-01-04T07:57:25.201Z,3.42
2019-01-04T07:58:25.183Z,3.45
2019-01-04T07:59:25.180Z,3.41
2019-01-04T08:00:25.171Z,3.48
2019-01-04T08:01:25.160Z,3.50
2019-01-04T08:02:25.152Z,3.45
2019-01-04T08:03:25.139Z,3.48
2019-01-04T08:04:25.139Z,3.58
2019-01-04T08:05:25.127Z,3.58
2019-01-04T08:06:25.113Z,3.60
2019-01-04T08:07:25.103Z,3.62
2019-01-04T08:08:25.095Z,3.60
2019-01-04T08:09:25.084Z,3.62
2019-01-04T08:10:25.074Z,3.62
2019-01-04T08:11:25.104Z,3.59
2019-01-04T08:12:25.056Z,3.70
2019-01-04T08:13:25.052Z,3.69
2019-01-04T08:14:25.040Z,3.70
2019-01-04T08:15:25.031Z,3.78
2019-01-04T08:16:25.023Z,3.73
2019-01-04T08:17:25.014Z,3.69
2019-01-04T08:18:25.009Z,3.84
2019-01-04T08:19:24.995Z,3.77
2019-01-04T08:20:24.991Z,3.84
2019-01-04T08:21:24.975Z,3.86
2019-01-04T08:22:24.970Z,3.83
2019-01-04T08:23:24.962Z,3.84
2019-01-04T08:24:24.953Z,3.86
2019-01-04T08:25:24.938Z,3.83
2019-01-04T08:26:24.940Z,3.87
2019-01-04T08:27:24.925Z,3.84
2019-01-04T08:28:24.917Z,3.84
2019-01-04T08:29:24.905Z,3.95
2019-01-04T08:30:24.894Z,3.84
2019-01-04T08:31:24.890Z,3.98
2019-01-04T08:32:24.885Z,3.86
2019-01-04T08:33:24.875Z,3.92
2019-01-04T08:34:24.859Z,3.91
2019-01-04T08:35:24.858Z,3.86
2019-01-04T08:36:24.845Z,3.95
2019-01-04T08:37:24.833Z,3.88
2019-01-04T08:38:24.833Z,3.98
2019-01-04T08:39:24.815Z,3.92
2019-01-04T08:40:24.811Z,3.98
2019-01-04T08:41:24.806Z,3.98
2019-01-04T08:42:24.796Z,3.86
2019-01-04T08:43:24.786Z,3.83
2019-01-04T08:44:24.781Z,3.96
2019-01-04T08:45:24.769Z,3.96
2019-01-04T08:46:24.758Z,3.94
2019-01-04T08:47:24.748Z,3.96
2019-01-04T08:48:24.746Z,4.06
2019-01-04T08:49:24.731Z,4.04
2019-01-04T08:50:24.729Z,4.06
2019-01-04T08:51:24.716Z,4.08
2019-01-04T08:52:24.706Z,4.06
2019-01-04T08:53:24.700Z,4.04
2019-01-04T08:54:24.693Z,4.04
2019-01-04T08:55:24.682Z,4.04
2019-01-04T08:56:24.676Z,4.05
2019-01-04T08:57:24.668Z,4.05
2019-01-04T08:58:24.657Z,4.06
2019-01-04T08:59:24.646Z,4.16
2019-01-04T09:00:24.644Z,4.04
2019-01-04T09:01:24.632Z,4.05
2019-01-04T09:02:24.621Z,4.16
2019-01-04T09:03:24.621Z,4.10
2019-01-04T09:04:24.613Z,4.06
2019-01-04T09:05:24.603Z,4.14
2019-01-04T09:06:24.587Z,4.12
2019-01-04T09:07:24.583Z,4.13
2019-01-04T09:08:24.580Z,4.10
2019-01-04T09:09:24.564Z,4.05
2019-01-04T09:10:24.567Z,4.14
2019-01-04T09:11:24.552Z,4.17
2019-01-04T09:12:24.538Z,4.10
2019-01-04T09:13:24.538Z,4.26
2019-01-04T09:14:24.522Z,4.28
2019-01-04T09:15:24.521Z,4.19
2019-01-04T09:16:24.543Z,4.31
2019-01-04T09:17:24.503Z,4.32
2019-01-04T09:18:24.491Z,4.26
2019-01-04T09:19:24.482Z,4.31
2019-01-04T09:20:24.474Z,4.35
2019-01-04T09:21:24.467Z,4.26
2019-01-04T09:22:24.465Z,4.26
2019-01-04T09:23:24.454Z,4.30
2019-01-04T09:24:24.448Z,4.30
2019-01-04T09:25:24.434Z,4.31
2019-01-04T09:26:24.434Z,4.38
2019-01-04T09:27:24.421Z,4.40
2019-01-04T09:28:24.418Z,4.37
2019-01-04T09:29:24.406Z,4.41
2019-01-04T09:30:24.396Z,4.38
2019-01-04T09:31:24.391Z,4.38
2019-01-04T09:32:24.379Z,4.42
2019-01-04T09:33:24.373Z,4.44
2019-01-04T09:34:24.368Z,4.45
2019-01-04T09:35:24.354Z,4.44
2019-01-04T09:36:24.355Z,4.48
2019-01-04T09:37:24.343Z,4.52
2019-01-04T09:38:24.332Z,4.56
2019-01-04T09:39:24.325Z,4.56
2019-01-04T09:40:24.317Z,4.58
2019-01-04T09:41:24.308Z,4.56
2019-01-04T09:42:24.308Z,4.59
2019-01-04T09:43:24.295Z,4.58
2019-01-04T09:44:24.294Z,4.56
2019-01-04T09:45:24.291Z,4.50
2019-01-04T09:46:24.278Z,4.53
2019-01-04T09:47:24.268Z,4.58
2019-01-04T09:48:24.259Z,4.56
2019-01-04T09:49:24.248Z,4.68
2019-01-04T09:50:24.240Z,4.56
2019-01-04T09:51:24.240Z,4.63
2019-01-04T09:52:24.226Z,4.63
2019-01-04T09:53:24.222Z,4.63
2019-01-04T09:54:24.211Z,4.68
2019-01-04T09:55:24.206Z,4.60
2019-01-04T09:56:24.201Z,4.60
2019-01-04T09:57:24.197Z,4.53
2019-01-04T09:58:24.183Z,4.58
2019-01-04T09:59:24.178Z,4.59
2019-01-04T10:00:24.174Z,4.59
2019-01-04T10:01:24.158Z,4.58
2019-01-04T10:02:24.150Z,4.53
2019-01-04T10:03:24.151Z,4.53
2019-01-04T10:04:24.144Z,4.60
2019-01-04T10:05:24.129Z,4.60
2019-01-04T10:06:24.150Z,4.59
2019-01-04T10:07:24.116Z,4.56
2019-01-04T10:08:24.106Z,4.55
2019-01-04T10:09:24.103Z,4.55
2019-01-04T10:10:24.089Z,4.56
2019-01-04T10:11:24.080Z,4.50
2019-01-04T10:12:24.080Z,4.59
2019-01-04T10:13:24.063Z,4.50
2019-01-04T10:14:24.055Z,4.55
2019-01-04T10:15:24.049Z,4.52
2019-01-04T10:16:24.039Z,4.56
2019-01-04T10:17:24.033Z,4.48
2019-01-04T10:18:24.028Z,4.52
2019-01-04T10:19:24.020Z,4.52
2019-01-04T10:20:24.015Z,4.52
2019-01-04T10:21:24.001Z,4.52
2019-01-04T10:22:24.001Z,4.59
2019-01-04T10:23:23.984Z,4.55
2019-01-04T10:24:23.979Z,4.56
2019-01-04T10:25:23.971Z,4.49
2019-01-04T10:26:23.962Z,4.55
2019-01-04T10:27:23.952Z,4.52
2019-01-04T10:28:23.941Z,4.48
2019-01-04T10:29:23.933Z,4.50
2019-01-04T10:30:23.929Z,4.52
2019-01-04T10:31:23.921Z,4.52
2019-01-04T10:32:23.917Z,4.53
2019-01-04T10:33:23.904Z,4.63
2019-01-04T10:34:23.891Z,4.53
2019-01-04T10:35:23.887Z,4.62
2019-01-04T10:36:23.880Z,4.58
2019-01-04T10:37:23.876Z,4.58
2019-01-04T10:38:23.861Z,4.53
2019-01-04T10:39:23.855Z,4.55
2019-01-04T10:40:23.850Z,4.62
2019-01-04T10:41:23.838Z,4.62
2019-01-04T10:42:23.828Z,4.59
2019-01-04T10:43:23.822Z,4.62
2019-01-04T10:44:23.818Z,4.49
2019-01-04T10:45:23.800Z,4.59
2019-01-04T10:46:23.796Z,4.58
2019-01-04T10:47:23.791Z,4.59
2019-01-04T10:48:23.775Z,4.55
2019-01-04T10:49:23.772Z,4.50
2019-01-04T10:50:23.758Z,4.48
2019-01-04T10:51:23.756Z,4.45
2019-01-04T10:52:24.144Z,4.48
2019-01-04T10:53:23.735Z,4.45
2019-01-04T10:54:23.731Z,4.50
2019-01-04T10:55:23.722Z,4.41
2019-01-04T10:56:23.708Z,4.41
2019-01-04T10:57:23.701Z,4.50
2019-01-04T10:58:23.692Z,4.55
2019-01-04T10:59:23.685Z,4.49
2019-01-04T11:00:23.674Z,4.45
2019-01-04T11:01:23.670Z,4.55
2019-01-04T11:02:23.661Z,4.45
2019-01-04T11:03:23.647Z,4.45
2019-01-04T11:04:23.647Z,4.42
2019-01-04T11:05:23.635Z,4.49
2019-01-04T11:06:23.623Z,4.52
2019-01-04T11:07:23.616Z,4.48
2019-01-04T11:08:23.610Z,4.53
2019-01-04T11:09:23.595Z,4.53
2019-01-04T11:10:23.587Z,4.48
2019-01-04T11:11:23.583Z,4.48
2019-01-04T11:12:23.573Z,4.52
2019-01-04T11:13:23.561Z,4.55
2019-01-04T11:14:23.554Z,4.50
2019-01-04T11:15:23.548Z,4.48
2019-01-04T11:16:23.538Z,4.48
2019-01-04T11:17:23.528Z,4.55
2019-01-04T11:18:23.520Z,4.56
2019-01-04T11:19:23.517Z,4.44
2019-01-04T11:20:23.506Z,4.48
2019-01-04T11:21:23.493Z,4.53
2019-01-04T11:22:23.489Z,4.44
2019-01-04T11:23:23.473Z,4.50
2019-01-04T11:24:23.470Z,4.52
2019-01-04T11:25:23.460Z,4.48
2019-01-04T11:26:23.456Z,4.50
2019-01-04T11:27:23.442Z,4.53
2019-01-04T11:28:23.437Z,4.53
2019-01-04T11:29:23.430Z,4.53
2019-01-04T11:30:23.423Z,4.53
2019-01-04T11:31:23.412Z,4.56
2019-01-04T11:32:23.440Z,4.52
2019-01-04T11:33:23.388Z,4.42
2019-01-04T11:34:23.384Z,4.49
2019-01-04T11:35:23.375Z,4.53
2019-01-04T11:36:23.364Z,4.55
2019-01-04T11:37:23.362Z,4.48
2019-01-04T11:38:23.347Z,4.52
2019-01-04T11:39:23.339Z,4.50
2019-01-04T11:40:23.333Z,4.53
2019-01-04T11:41:23.322Z,4.53
2019-01-04T11:42:23.312Z,4.50
2019-01-04T11:43:23.309Z,4.48
2019-01-04T11:44:23.301Z,4.48
2019-01-04T11:45:23.288Z,4.40
2019-01-04T11:46:23.275Z,4.44
2019-01-04T11:47:23.276Z,4.52
2019-01-04T11:48:23.266Z,4.53
2019-01-04T11:49:23.256Z,4.48
2019-01-04T11:50:23.242Z,4.49
2019-01-04T11:51:23.240Z,4.48
2019-01-04T11:52:23.230Z,4.48
2019-01-04T11:53:23.213Z,4.53
2019-01-04T11:54:23.214Z,4.48
2019-01-04T11:55:23.204Z,4.52
2019-01-04T11:56:23.196Z,4.50
2019-01-04T11:57:23.184Z,4.56
2019-01-04T11:58:23.171Z,4.55
2019-01-04T11:59:23.167Z,4.56
2019-01-04T12:00:23.160Z,4.49
2019-01-04T12:01:23.152Z,4.52
2019-01-04T12:02:26.349Z,4.56
2019-01-04T12:03:23.127Z,4.49
2019-01-04T12:04:23.123Z,4.55
2019-01-04T12:05:23.108Z,4.53
2019-01-04T12:06:23.109Z,4.52
2019-01-04T12:07:23.094Z,4.52
2019-01-04T12:08:23.092Z,4.56
2019-01-04T12:09:23.082Z,4.53
2019-01-04T12:10:23.071Z,4.50
2019-01-04T12:11:23.058Z,4.53
2019-01-04T12:12:23.055Z,4.60
2019-01-04T12:13:23.045Z,4.56
2019-01-04T12:14:23.038Z,4.50
2019-01-04T12:15:23.025Z,4.58
2019-01-04T12:16:23.021Z,4.58
2019-01-04T12:17:23.006Z,4.55
2019-01-04T12:18:23.000Z,4.53
2019-01-04T12:19:22.998Z,4.56
2019-01-04T12:20:22.987Z,4.48
2019-01-04T12:21:22.977Z,4.55
2019-01-04T12:22:22.962Z,4.49
2019-01-04T12:23:22.974Z,4.52
2019-01-04T12:24:22.955Z,4.58
2019-01-04T12:25:22.936Z,4.52
2019-01-04T12:26:22.930Z,4.59
2019-01-04T12:27:22.924Z,4.58
2019-01-04T12:28:22.918Z,4.60
2019-01-04T12:29:22.910Z,4.53
2019-01-04T12:30:22.898Z,4.63
2019-01-04T12:31:22.887Z,4.60
2019-01-04T12:32:22.877Z,4.56
2019-01-04T12:33:22.870Z,4.56
2019-01-04T12:34:22.859Z,4.56
2019-01-04T12:35:22.856Z,4.62
2019-01-04T12:36:22.850Z,4.62
2019-01-04T12:37:22.831Z,4.58
2019-01-04T12:38:22.829Z,4.58
2019-01-04T12:39:22.817Z,4.58
2019-01-04T12:40:22.814Z,4.58
2019-01-04T12:41:22.801Z,4.66
2019-01-04T12:42:22.795Z,4.59
2019-01-04T12:43:22.785Z,4.53
2019-01-04T12:44:22.776Z,4.55
2019-01-04T12:45:22.762Z,4.56
2019-01-04T12:46:22.761Z,4.58
2019-01-04T12:47:22.750Z,4.55
2019-01-04T12:48:22.744Z,4.50
2019-01-04T12:49:22.731Z,4.55
2019-01-04T12:50:22.726Z,4.62
2019-01-04T12:51:22.717Z,4.55
2019-01-04T12:52:22.704Z,4.60
2019-01-04T12:53:22.707Z,4.63
2019-01-04T12:54:22.689Z,4.58
2019-01-04T12:55:22.679Z,4.53
2019-01-04T12:56:22.665Z,4.62
2019-01-04T12:57:22.656Z,4.63
2019-01-04T12:58:22.656Z,4.67
2019-01-04T12:59:22.640Z,4.66
2019-01-04T13:00:22.633Z,4.66
2019-01-04T13:01:22.629Z,4.58
2019-01-04T13:02:22.614Z,4.58
2019-01-04T13:03:22.613Z,4.58
2019-01-04T13:04:22.599Z,4.63
2019-01-04T13:05:22.610Z,4.67
2019-01-04T13:06:22.583Z,4.63
2019-01-04T13:07:22.573Z,4.60
2019-01-04T13:08:22.570Z,4.60
2019-01-04T13:09:22.551Z,4.67
2019-01-04T13:10:22.546Z,4.59
2019-01-04T13:11:22.540Z,4.63
2019-01-04T13:12:22.527Z,4.56
2019-01-04T13:13:22.524Z,4.60
2019-01-04T13:14:22.514Z,4.63
2019-01-04T13:15:22.503Z,4.60
2019-01-04T13:16:22.498Z,4.71
2019-01-04T13:17:22.482Z,4.58
2019-01-04T13:18:22.476Z,4.59